sensor_id;sensor_type;location;lat;lon;timestamp;pressure;altitude;pressure_sealevel;temperature;humidity
40730;BME280;26418;50.070;8.436;2023-04-26T00:00:16;100165.31;;;4.86;71.76
40730;BME280;26418;50.070;8.436;2023-04-26T00:02:41;100150.50;;;4.79;71.92
40730;BME280;26418;50.070;8.436;2023-04-26T00:05:07;100165.00;;;4.83;71.93
40730;BME280;26418;50.070;8.436;2023-04-26T00:07:33;100154.53;;;4.76;72.08
40730;BME280;26418;50.070;8.436;2023-04-26T00:09:59;100172.25;;;4.82;72.00
40730;BME280;26418;50.070;8.436;2023-04-26T00:12:25;100153.66;;;4.70;72.20
40730;BME280;26418;50.070;8.436;2023-04-26T00:14:50;100171.16;;;4.78;72.22
40730;BME280;26418;50.070;8.436;2023-04-26T00:17:15;100177.00;;;4.75;72.34
40730;BME280;26418;50.070;8.436;2023-04-26T00:19:41;100177.78;;;4.70;72.57
40730;BME280;26418;50.070;8.436;2023-04-26T00:22:06;100180.94;;;4.67;72.79
40730;BME280;26418;50.070;8.436;2023-04-26T00:24:33;100168.88;;;4.65;72.79
40730;BME280;26418;50.070;8.436;2023-04-26T00:26:58;100172.13;;;4.67;72.72
40730;BME280;26418;50.070;8.436;2023-04-26T00:29:24;100180.91;;;4.62;73.12
40730;BME280;26418;50.070;8.436;2023-04-26T00:31:50;100179.50;;;4.54;72.91
40730;BME280;26418;50.070;8.436;2023-04-26T00:34:15;100159.53;;;4.40;73.57
40730;BME280;26418;50.070;8.436;2023-04-26T00:36:41;100163.06;;;4.40;73.71
40730;BME280;26418;50.070;8.436;2023-04-26T00:39:06;100177.56;;;4.50;73.75
40730;BME280;26418;50.070;8.436;2023-04-26T00:41:32;100173.81;;;4.46;74.01
40730;BME280;26418;50.070;8.436;2023-04-26T00:43:58;100170.81;;;4.42;74.32
40730;BME280;26418;50.070;8.436;2023-04-26T00:46:23;100171.09;;;4.40;74.54
40730;BME280;26418;50.070;8.436;2023-04-26T00:48:49;100177.22;;;4.41;74.59
40730;BME280;26418;50.070;8.436;2023-04-26T00:51:14;100182.59;;;4.41;74.71
40730;BME280;26418;50.070;8.436;2023-04-26T00:53:40;100176.47;;;4.46;74.40
40730;BME280;26418;50.070;8.436;2023-04-26T00:56:08;100164.91;;;4.40;73.98
40730;BME280;26418;50.070;8.436;2023-04-26T00:58:33;100166.22;;;4.37;73.75
40730;BME280;26418;50.070;8.436;2023-04-26T01:00:59;100169.66;;;4.33;74.11
40730;BME280;26418;50.070;8.436;2023-04-26T01:03:24;100171.72;;;4.25;74.47
40730;BME280;26418;50.070;8.436;2023-04-26T01:05:51;100174.09;;;4.22;74.61
40730;BME280;26418;50.070;8.436;2023-04-26T01:08:16;100165.19;;;4.16;74.45
40730;BME280;26418;50.070;8.436;2023-04-26T01:10:46;100154.63;;;4.04;74.71
40730;BME280;26418;50.070;8.436;2023-04-26T01:13:12;100151.66;;;4.01;74.79
40730;BME280;26418;50.070;8.436;2023-04-26T01:15:44;100150.06;;;4.05;75.15
40730;BME280;26418;50.070;8.436;2023-04-26T01:18:09;100167.84;;;4.11;75.03
40730;BME280;26418;50.070;8.436;2023-04-26T01:20:35;100168.31;;;4.08;74.93
40730;BME280;26418;50.070;8.436;2023-04-26T01:23:00;100163.69;;;3.98;75.49
40730;BME280;26418;50.070;8.436;2023-04-26T01:25:26;100169.38;;;4.07;74.56
40730;BME280;26418;50.070;8.436;2023-04-26T01:27:52;100164.03;;;4.07;74.40
40730;BME280;26418;50.070;8.436;2023-04-26T01:30:17;100155.50;;;4.10;74.31
40730;BME280;26418;50.070;8.436;2023-04-26T01:32:43;100161.66;;;4.11;74.32
40730;BME280;26418;50.070;8.436;2023-04-26T01:35:08;100166.00;;;4.17;73.73
40730;BME280;26418;50.070;8.436;2023-04-26T01:37:33;100157.97;;;4.17;73.38
40730;BME280;26418;50.070;8.436;2023-04-26T01:39:59;100166.25;;;4.15;73.74
40730;BME280;26418;50.070;8.436;2023-04-26T01:42:24;100164.72;;;4.19;73.80
40730;BME280;26418;50.070;8.436;2023-04-26T01:44:49;100165.50;;;4.20;73.60
40730;BME280;26418;50.070;8.436;2023-04-26T01:47:14;100161.16;;;4.14;73.67
40730;BME280;26418;50.070;8.436;2023-04-26T01:49:40;100157.22;;;4.21;73.29
40730;BME280;26418;50.070;8.436;2023-04-26T01:52:05;100162.03;;;4.19;72.45
40730;BME280;26418;50.070;8.436;2023-04-26T01:54:31;100172.97;;;4.18;72.67
40730;BME280;26418;50.070;8.436;2023-04-26T01:56:56;100174.78;;;4.12;73.16
40730;BME280;26418;50.070;8.436;2023-04-26T01:59:21;100169.13;;;4.08;73.55
40730;BME280;26418;50.070;8.436;2023-04-26T02:01:47;100172.53;;;4.04;73.79
40730;BME280;26418;50.070;8.436;2023-04-26T02:04:12;100159.25;;;3.87;73.32
40730;BME280;26418;50.070;8.436;2023-04-26T02:06:38;100179.84;;;3.86;74.04
40730;BME280;26418;50.070;8.436;2023-04-26T02:09:06;100175.16;;;3.76;74.76
40730;BME280;26418;50.070;8.436;2023-04-26T02:11:33;100178.03;;;3.70;74.88
40730;BME280;26418;50.070;8.436;2023-04-26T02:13:59;100162.09;;;3.58;75.03
40730;BME280;26418;50.070;8.436;2023-04-26T02:16:24;100157.56;;;3.58;75.38
40730;BME280;26418;50.070;8.436;2023-04-26T02:18:51;100167.22;;;3.59;75.27
40730;BME280;26418;50.070;8.436;2023-04-26T02:21:17;100177.28;;;3.74;75.23
40730;BME280;26418;50.070;8.436;2023-04-26T02:23:43;100175.84;;;3.67;75.60
40730;BME280;26418;50.070;8.436;2023-04-26T02:26:08;100173.75;;;3.69;75.54
40730;BME280;26418;50.070;8.436;2023-04-26T02:28:35;100176.59;;;3.62;75.34
40730;BME280;26418;50.070;8.436;2023-04-26T02:31:01;100185.63;;;3.56;75.78
40730;BME280;26418;50.070;8.436;2023-04-26T02:33:27;100179.63;;;3.49;76.12
40730;BME280;26418;50.070;8.436;2023-04-26T02:35:52;100158.03;;;3.33;75.71
40730;BME280;26418;50.070;8.436;2023-04-26T02:38:17;100180.22;;;3.34;76.41
40730;BME280;26418;50.070;8.436;2023-04-26T02:40:42;100180.66;;;3.25;76.86
40730;BME280;26418;50.070;8.436;2023-04-26T02:43:08;100170.69;;;3.21;77.54
40730;BME280;26418;50.070;8.436;2023-04-26T02:45:40;100181.84;;;3.18;77.85
40730;BME280;26418;50.070;8.436;2023-04-26T02:48:05;100167.22;;;3.03;78.27
40730;BME280;26418;50.070;8.436;2023-04-26T02:50:30;100181.22;;;3.10;78.44
40730;BME280;26418;50.070;8.436;2023-04-26T02:52:55;100179.59;;;3.09;78.83
40730;BME280;26418;50.070;8.436;2023-04-26T02:55:21;100176.66;;;3.11;79.08
40730;BME280;26418;50.070;8.436;2023-04-26T02:57:46;100170.78;;;3.09;79.04
40730;BME280;26418;50.070;8.436;2023-04-26T03:00:12;100175.06;;;3.10;79.01
40730;BME280;26418;50.070;8.436;2023-04-26T03:02:38;100169.72;;;3.10;79.23
40730;BME280;26418;50.070;8.436;2023-04-26T03:05:03;100166.22;;;3.09;78.91
40730;BME280;26418;50.070;8.436;2023-04-26T03:07:29;100162.44;;;3.05;78.91
40730;BME280;26418;50.070;8.436;2023-04-26T03:09:55;100174.09;;;3.16;79.03
40730;BME280;26418;50.070;8.436;2023-04-26T03:12:20;100174.88;;;3.17;78.96
40730;BME280;26418;50.070;8.436;2023-04-26T03:14:46;100171.41;;;3.16;79.06
40730;BME280;26418;50.070;8.436;2023-04-26T03:17:11;100161.53;;;3.17;78.66
40730;BME280;26418;50.070;8.436;2023-04-26T03:19:36;100163.09;;;3.12;78.83
40730;BME280;26418;50.070;8.436;2023-04-26T03:22:02;100137.75;;;2.98;79.19
40730;BME280;26418;50.070;8.436;2023-04-26T03:24:27;100146.91;;;3.02;79.11
40730;BME280;26418;50.070;8.436;2023-04-26T03:26:52;100151.91;;;2.98;79.24
40730;BME280;26418;50.070;8.436;2023-04-26T03:29:18;100154.66;;;3.04;79.25
40730;BME280;26418;50.070;8.436;2023-04-26T03:31:43;100141.38;;;2.92;79.23
40730;BME280;26418;50.070;8.436;2023-04-26T03:34:08;100156.28;;;3.05;78.96
40730;BME280;26418;50.070;8.436;2023-04-26T03:36:34;100158.16;;;3.04;79.16
40730;BME280;26418;50.070;8.436;2023-04-26T03:38:59;100161.88;;;3.03;78.85
40730;BME280;26418;50.070;8.436;2023-04-26T03:41:24;100161.56;;;2.99;79.13
40730;BME280;26418;50.070;8.436;2023-04-26T03:43:50;100157.41;;;2.92;79.44
40730;BME280;26418;50.070;8.436;2023-04-26T03:46:15;100163.06;;;2.95;79.40
40730;BME280;26418;50.070;8.436;2023-04-26T03:48:41;100165.53;;;2.97;79.65
40730;BME280;26418;50.070;8.436;2023-04-26T03:51:06;100154.25;;;2.95;79.42
40730;BME280;26418;50.070;8.436;2023-04-26T03:53:32;100147.22;;;2.89;79.35
40730;BME280;26418;50.070;8.436;2023-04-26T03:55:57;100155.78;;;2.91;78.96
40730;BME280;26418;50.070;8.436;2023-04-26T03:58:26;100149.34;;;2.87;79.26
40730;BME280;26418;50.070;8.436;2023-04-26T04:00:54;100164.47;;;2.98;78.97
40730;BME280;26418;50.070;8.436;2023-04-26T04:03:20;100159.88;;;2.93;78.88
40730;BME280;26418;50.070;8.436;2023-04-26T04:05:45;100154.44;;;2.88;79.36
40730;BME280;26418;50.070;8.436;2023-04-26T04:08:10;100138.16;;;2.73;79.53
40730;BME280;26418;50.070;8.436;2023-04-26T04:10:36;100155.72;;;2.86;79.53
40730;BME280;26418;50.070;8.436;2023-04-26T04:13:02;100136.53;;;2.72;79.29
40730;BME280;26418;50.070;8.436;2023-04-26T04:15:27;100156.78;;;2.85;79.27
40730;BME280;26418;50.070;8.436;2023-04-26T04:17:53;100146.81;;;2.80;79.10
40730;BME280;26418;50.070;8.436;2023-04-26T04:20:18;100141.41;;;2.75;79.02
40730;BME280;26418;50.070;8.436;2023-04-26T04:22:45;100162.59;;;2.81;79.19
40730;BME280;26418;50.070;8.436;2023-04-26T04:25:10;100144.53;;;2.72;79.74
40730;BME280;26418;50.070;8.436;2023-04-26T04:27:37;100147.88;;;2.79;80.50
40730;BME280;26418;50.070;8.436;2023-04-26T04:30:03;100153.13;;;2.91;85.06
40730;BME280;26418;50.070;8.436;2023-04-26T04:32:31;100162.81;;;3.14;88.74
40730;BME280;26418;50.070;8.436;2023-04-26T04:34:57;100166.06;;;3.16;87.98
40730;BME280;26418;50.070;8.436;2023-04-26T04:37:23;100159.09;;;3.15;85.47
40730;BME280;26418;50.070;8.436;2023-04-26T04:39:50;100162.44;;;3.05;83.36
40730;BME280;26418;50.070;8.436;2023-04-26T04:42:15;100174.88;;;3.17;83.89
40730;BME280;26418;50.070;8.436;2023-04-26T04:44:41;100181.91;;;3.40;89.66
40730;BME280;26418;50.070;8.436;2023-04-26T04:47:07;100185.00;;;3.93;95.75
40730;BME280;26418;50.070;8.436;2023-04-26T04:49:32;100183.69;;;4.45;99.24
40730;BME280;26418;50.070;8.436;2023-04-26T04:51:57;100189.19;;;4.88;99.23
40730;BME280;26418;50.070;8.436;2023-04-26T04:54:23;100196.47;;;5.30;96.47
40730;BME280;26418;50.070;8.436;2023-04-26T04:56:48;100185.63;;;5.58;92.36
40730;BME280;26418;50.070;8.436;2023-04-26T04:59:14;100194.88;;;5.88;88.41
40730;BME280;26418;50.070;8.436;2023-04-26T05:01:39;100183.06;;;5.83;85.71
40730;BME280;26418;50.070;8.436;2023-04-26T05:04:05;100208.06;;;5.89;83.94
40730;BME280;26418;50.070;8.436;2023-04-26T05:06:31;100205.25;;;5.69;80.71
40730;BME280;26418;50.070;8.436;2023-04-26T05:08:57;100206.72;;;5.39;79.69
40730;BME280;26418;50.070;8.436;2023-04-26T05:11:22;100202.69;;;5.03;79.30
40730;BME280;26418;50.070;8.436;2023-04-26T05:13:48;100211.88;;;4.80;78.92
40730;BME280;26418;50.070;8.436;2023-04-26T05:16:13;100197.41;;;4.49;78.99
40730;BME280;26418;50.070;8.436;2023-04-26T05:18:39;100211.75;;;4.37;79.04
40730;BME280;26418;50.070;8.436;2023-04-26T05:21:04;100219.16;;;4.30;79.11
40730;BME280;26418;50.070;8.436;2023-04-26T05:23:30;100224.66;;;4.18;78.82
40730;BME280;26418;50.070;8.436;2023-04-26T05:25:55;100215.38;;;4.04;79.24
40730;BME280;26418;50.070;8.436;2023-04-26T05:28:21;100222.59;;;4.03;79.38
40730;BME280;26418;50.070;8.436;2023-04-26T05:30:47;100225.53;;;4.02;79.28
40730;BME280;26418;50.070;8.436;2023-04-26T05:33:12;100232.75;;;4.01;79.39
40730;BME280;26418;50.070;8.436;2023-04-26T05:35:38;100216.63;;;3.96;79.31
40730;BME280;26418;50.070;8.436;2023-04-26T05:38:03;100230.63;;;4.03;79.53
40730;BME280;26418;50.070;8.436;2023-04-26T05:40:28;100213.13;;;3.96;79.61
40730;BME280;26418;50.070;8.436;2023-04-26T05:42:54;100237.16;;;4.13;79.49
40730;BME280;26418;50.070;8.436;2023-04-26T05:45:19;100236.16;;;4.19;79.31
40730;BME280;26418;50.070;8.436;2023-04-26T05:47:45;100237.03;;;4.24;79.23
40730;BME280;26418;50.070;8.436;2023-04-26T05:50:11;100219.59;;;4.22;79.11
40730;BME280;26418;50.070;8.436;2023-04-26T05:52:37;100239.88;;;4.40;79.06
40730;BME280;26418;50.070;8.436;2023-04-26T05:55:02;100239.69;;;4.47;78.17
40730;BME280;26418;50.070;8.436;2023-04-26T05:57:28;100231.91;;;4.45;78.03
40730;BME280;26418;50.070;8.436;2023-04-26T05:59:54;100240.03;;;4.55;77.82
40730;BME280;26418;50.070;8.436;2023-04-26T06:02:19;100237.88;;;4.52;77.83
40730;BME280;26418;50.070;8.436;2023-04-26T06:04:44;100244.16;;;4.63;78.15
40730;BME280;26418;50.070;8.436;2023-04-26T06:07:10;100259.34;;;4.85;77.89
40730;BME280;26418;50.070;8.436;2023-04-26T06:09:36;100259.50;;;5.00;76.89
40730;BME280;26418;50.070;8.436;2023-04-26T06:12:01;100252.59;;;5.10;75.27
40730;BME280;26418;50.070;8.436;2023-04-26T06:14:28;100248.91;;;5.16;73.85
40730;BME280;26418;50.070;8.436;2023-04-26T06:16:53;100257.63;;;5.33;74.05
40730;BME280;26418;50.070;8.436;2023-04-26T06:19:18;100259.88;;;5.47;73.68
40730;BME280;26418;50.070;8.436;2023-04-26T06:21:44;100257.28;;;5.57;72.91
40730;BME280;26418;50.070;8.436;2023-04-26T06:24:09;100259.75;;;5.69;72.36
40730;BME280;26418;50.070;8.436;2023-04-26T06:26:34;100260.91;;;5.83;71.23
40730;BME280;26418;50.070;8.436;2023-04-26T06:29:00;100250.47;;;5.92;72.74
40730;BME280;26418;50.070;8.436;2023-04-26T06:31:25;100262.19;;;6.19;71.35
40730;BME280;26418;50.070;8.436;2023-04-26T06:33:51;100264.66;;;6.36;68.59
40730;BME280;26418;50.070;8.436;2023-04-26T06:36:16;100261.44;;;6.44;67.42
40730;BME280;26418;50.070;8.436;2023-04-26T06:38:41;100251.81;;;6.48;66.97
40730;BME280;26418;50.070;8.436;2023-04-26T06:41:06;100259.91;;;6.64;66.24
40730;BME280;26418;50.070;8.436;2023-04-26T06:43:33;100264.75;;;6.72;65.52
40730;BME280;26418;50.070;8.436;2023-04-26T06:45:58;100261.81;;;6.84;65.38
40730;BME280;26418;50.070;8.436;2023-04-26T06:48:23;100266.16;;;6.95;66.55
40730;BME280;26418;50.070;8.436;2023-04-26T06:50:49;100259.44;;;7.08;67.46
40730;BME280;26418;50.070;8.436;2023-04-26T06:53:14;100257.81;;;7.12;67.72
40730;BME280;26418;50.070;8.436;2023-04-26T06:55:39;100248.13;;;7.21;67.95
40730;BME280;26418;50.070;8.436;2023-04-26T06:58:04;100249.47;;;7.29;67.00
40730;BME280;26418;50.070;8.436;2023-04-26T07:00:30;100251.88;;;7.41;68.77
40730;BME280;26418;50.070;8.436;2023-04-26T07:02:55;100250.50;;;7.64;69.13
40730;BME280;26418;50.070;8.436;2023-04-26T07:05:21;100256.38;;;7.87;66.09
40730;BME280;26418;50.070;8.436;2023-04-26T07:07:46;100263.88;;;8.00;64.74
40730;BME280;26418;50.070;8.436;2023-04-26T07:10:12;100245.31;;;7.99;62.36
40730;BME280;26418;50.070;8.436;2023-04-26T07:12:38;100258.13;;;8.23;62.12
40730;BME280;26418;50.070;8.436;2023-04-26T07:15:04;100244.38;;;8.29;61.57
40730;BME280;26418;50.070;8.436;2023-04-26T07:17:31;100254.00;;;8.46;60.20
40730;BME280;26418;50.070;8.436;2023-04-26T07:19:56;100255.31;;;8.59;59.81
40730;BME280;26418;50.070;8.436;2023-04-26T07:22:22;100255.50;;;8.73;59.68
40730;BME280;26418;50.070;8.436;2023-04-26T07:24:47;100256.47;;;8.87;59.67
40730;BME280;26418;50.070;8.436;2023-04-26T07:27:12;100254.97;;;9.10;57.53
40730;BME280;26418;50.070;8.436;2023-04-26T07:29:38;100247.75;;;9.30;57.36
40730;BME280;26418;50.070;8.436;2023-04-26T07:32:04;100245.97;;;9.50;56.34
40730;BME280;26418;50.070;8.436;2023-04-26T07:34:29;100248.41;;;9.75;58.61
40730;BME280;26418;50.070;8.436;2023-04-26T07:36:54;100243.94;;;10.14;56.27
40730;BME280;26418;50.070;8.436;2023-04-26T07:39:20;100246.66;;;10.33;53.21
40730;BME280;26418;50.070;8.436;2023-04-26T07:41:46;100246.03;;;10.42;52.18
40730;BME280;26418;50.070;8.436;2023-04-26T07:44:11;100243.03;;;10.43;51.20
40730;BME280;26418;50.070;8.436;2023-04-26T07:46:36;100238.22;;;10.59;53.11
40730;BME280;26418;50.070;8.436;2023-04-26T07:49:02;100239.94;;;10.88;53.58
40730;BME280;26418;50.070;8.436;2023-04-26T07:51:27;100227.72;;;11.10;51.14
40730;BME280;26418;50.070;8.436;2023-04-26T07:53:53;100231.63;;;11.17;50.05
40730;BME280;26418;50.070;8.436;2023-04-26T07:56:20;100234.78;;;11.25;50.03
40730;BME280;26418;50.070;8.436;2023-04-26T07:58:45;100226.94;;;11.23;47.94
40730;BME280;26418;50.070;8.436;2023-04-26T08:01:11;100237.50;;;11.25;48.82
40730;BME280;26418;50.070;8.436;2023-04-26T08:03:36;100236.56;;;11.29;49.34
40730;BME280;26418;50.070;8.436;2023-04-26T08:06:02;100234.28;;;11.23;48.35
40730;BME280;26418;50.070;8.436;2023-04-26T08:08:28;100230.41;;;11.10;49.34
40730;BME280;26418;50.070;8.436;2023-04-26T08:10:54;100236.09;;;11.08;49.90
40730;BME280;26418;50.070;8.436;2023-04-26T08:13:20;100241.84;;;11.07;49.87
40730;BME280;26418;50.070;8.436;2023-04-26T08:15:45;100244.22;;;11.08;49.94
40730;BME280;26418;50.070;8.436;2023-04-26T08:18:11;100241.16;;;11.15;50.28
40730;BME280;26418;50.070;8.436;2023-04-26T08:20:37;100233.13;;;11.10;50.22
40730;BME280;26418;50.070;8.436;2023-04-26T08:23:02;100243.34;;;11.13;50.14
40730;BME280;26418;50.070;8.436;2023-04-26T08:25:28;100248.94;;;11.03;47.94
40730;BME280;26418;50.070;8.436;2023-04-26T08:27:53;100245.66;;;10.87;46.88
40730;BME280;26418;50.070;8.436;2023-04-26T08:30:19;100243.41;;;10.75;46.57
40730;BME280;26418;50.070;8.436;2023-04-26T08:32:45;100244.88;;;10.86;45.50
40730;BME280;26418;50.070;8.436;2023-04-26T08:35:11;100235.31;;;11.08;44.78
40730;BME280;26418;50.070;8.436;2023-04-26T08:37:36;100232.19;;;11.33;42.91
40730;BME280;26418;50.070;8.436;2023-04-26T08:40:05;100233.84;;;11.62;41.26
40730;BME280;26418;50.070;8.436;2023-04-26T08:42:33;100231.25;;;11.85;41.42
40730;BME280;26418;50.070;8.436;2023-04-26T08:45:03;100230.97;;;12.01;40.13
40730;BME280;26418;50.070;8.436;2023-04-26T08:47:49;100230.06;;;12.05;40.60
40730;BME280;26418;50.070;8.436;2023-04-26T08:50:18;100225.34;;;11.97;40.47
40730;BME280;26418;50.070;8.436;2023-04-26T08:52:47;100214.88;;;11.90;41.14
40730;BME280;26418;50.070;8.436;2023-04-26T08:55:12;100229.34;;;12.00;41.06
40730;BME280;26418;50.070;8.436;2023-04-26T08:57:41;100233.75;;;11.95;40.97
40730;BME280;26418;50.070;8.436;2023-04-26T09:00:07;100220.13;;;12.01;41.14
40730;BME280;26418;50.070;8.436;2023-04-26T09:02:34;100225.63;;;11.95;41.51
40730;BME280;26418;50.070;8.436;2023-04-26T09:05:01;100221.31;;;11.94;41.88
40730;BME280;26418;50.070;8.436;2023-04-26T09:07:33;100220.50;;;11.80;42.01
40730;BME280;26418;50.070;8.436;2023-04-26T09:10:00;100225.81;;;11.71;42.45
40730;BME280;26418;50.070;8.436;2023-04-26T09:12:25;100212.03;;;11.40;42.06
40730;BME280;26418;50.070;8.436;2023-04-26T09:14:51;100218.53;;;11.25;42.36
40730;BME280;26418;50.070;8.436;2023-04-26T09:17:37;100227.09;;;11.13;42.73
40730;BME280;26418;50.070;8.436;2023-04-26T09:20:25;100221.25;;;11.25;43.55
40730;BME280;26418;50.070;8.436;2023-04-26T09:23:08;100205.72;;;11.44;42.62
40730;BME280;26418;50.070;8.436;2023-04-26T09:25:34;100198.81;;;11.80;42.48
40730;BME280;26418;50.070;8.436;2023-04-26T09:28:01;100216.56;;;12.28;41.03
40730;BME280;26418;50.070;8.436;2023-04-26T09:30:28;100213.59;;;12.52;39.96
40730;BME280;26418;50.070;8.436;2023-04-26T09:32:58;100219.91;;;13.07;43.90
40730;BME280;26418;50.070;8.436;2023-04-26T09:37:56;100205.03;;;13.59;40.33
40730;BME280;26418;50.070;8.436;2023-04-26T09:40:24;100211.91;;;14.05;42.98
40730;BME280;26418;50.070;8.436;2023-04-26T09:45:23;100196.22;;;14.11;36.85
40730;BME280;26418;50.070;8.436;2023-04-26T09:47:48;100205.16;;;13.94;37.15
40730;BME280;26418;50.070;8.436;2023-04-26T09:50:25;100196.91;;;13.36;36.66
40730;BME280;26418;50.070;8.436;2023-04-26T09:52:50;100203.38;;;13.17;36.42
40730;BME280;26418;50.070;8.436;2023-04-26T09:55:26;100208.31;;;12.93;38.43
40730;BME280;26418;50.070;8.436;2023-04-26T09:57:52;100195.84;;;12.92;39.04
40730;BME280;26418;50.070;8.436;2023-04-26T10:00:18;100202.94;;;13.01;38.86
40730;BME280;26418;50.070;8.436;2023-04-26T10:02:45;100183.00;;;13.06;39.24
40730;BME280;26418;50.070;8.436;2023-04-26T10:05:11;100197.03;;;13.54;39.97
40730;BME280;26418;50.070;8.436;2023-04-26T10:07:36;100201.94;;;13.92;38.34
40730;BME280;26418;50.070;8.436;2023-04-26T10:10:03;100187.47;;;14.23;36.30
40730;BME280;26418;50.070;8.436;2023-04-26T10:12:29;100192.56;;;14.33;35.93
40730;BME280;26418;50.070;8.436;2023-04-26T10:14:55;100190.69;;;14.34;35.99
40730;BME280;26418;50.070;8.436;2023-04-26T10:17:21;100187.31;;;14.28;36.34
40730;BME280;26418;50.070;8.436;2023-04-26T10:19:49;100175.13;;;14.34;36.38
40730;BME280;26418;50.070;8.436;2023-04-26T10:22:21;100186.03;;;14.60;36.78
40730;BME280;26418;50.070;8.436;2023-04-26T10:24:48;100185.19;;;15.04;35.83
40730;BME280;26418;50.070;8.436;2023-04-26T10:27:13;100179.06;;;15.16;34.62
40730;BME280;26418;50.070;8.436;2023-04-26T10:30:11;100184.94;;;15.35;37.03
40730;BME280;26418;50.070;8.436;2023-04-26T10:35:22;100171.56;;;15.13;35.55
40730;BME280;26418;50.070;8.436;2023-04-26T10:40:27;100175.75;;;15.01;33.30
40730;BME280;26418;50.070;8.436;2023-04-26T10:45:35;100176.88;;;14.12;35.04
40730;BME280;26418;50.070;8.436;2023-04-26T10:48:18;100171.91;;;13.97;36.08
40730;BME280;26418;50.070;8.436;2023-04-26T10:58:47;100151.63;;;14.56;34.63
40730;BME280;26418;50.070;8.436;2023-04-26T11:01:19;100155.59;;;14.85;34.14
40730;BME280;26418;50.070;8.436;2023-04-26T11:06:22;100131.31;;;15.57;33.80
40730;BME280;26418;50.070;8.436;2023-04-26T11:08:48;100140.13;;;15.93;33.27
40730;BME280;26418;50.070;8.436;2023-04-26T11:11:15;100143.53;;;16.11;35.17
40730;BME280;26418;50.070;8.436;2023-04-26T11:13:42;100135.13;;;16.16;33.30
40730;BME280;26418;50.070;8.436;2023-04-26T11:16:08;100150.09;;;16.31;33.55
40730;BME280;26418;50.070;8.436;2023-04-26T11:18:35;100149.78;;;16.32;32.36
40730;BME280;26418;50.070;8.436;2023-04-26T11:21:01;100149.09;;;16.35;31.84
40730;BME280;26418;50.070;8.436;2023-04-26T11:23:28;100137.94;;;16.07;31.53
40730;BME280;26418;50.070;8.436;2023-04-26T11:26:02;100142.47;;;16.24;32.62
40730;BME280;26418;50.070;8.436;2023-04-26T11:28:28;100131.47;;;16.66;32.81
40730;BME280;26418;50.070;8.436;2023-04-26T11:30:54;100128.09;;;16.70;31.30
40730;BME280;26418;50.070;8.436;2023-04-26T11:33:20;100124.25;;;16.83;31.34
40730;BME280;26418;50.070;8.436;2023-04-26T11:35:52;100131.50;;;17.12;32.44
40730;BME280;26418;50.070;8.436;2023-04-26T11:38:22;100109.44;;;17.30;32.00
40730;BME280;26418;50.070;8.436;2023-04-26T11:40:59;100119.91;;;17.65;30.81
40730;BME280;26418;50.070;8.436;2023-04-26T11:43:36;100121.34;;;18.12;30.82
40730;BME280;26418;50.070;8.436;2023-04-26T11:46:03;100113.84;;;18.82;29.71
40730;BME280;26418;50.070;8.436;2023-04-26T11:48:29;100120.81;;;19.24;27.46
40730;BME280;26418;50.070;8.436;2023-04-26T11:50:58;100115.75;;;18.94;28.48
40730;BME280;26418;50.070;8.436;2023-04-26T11:53:24;100104.88;;;18.53;28.63
40730;BME280;26418;50.070;8.436;2023-04-26T11:55:50;100115.97;;;18.44;29.34
40730;BME280;26418;50.070;8.436;2023-04-26T11:58:16;100124.47;;;18.27;29.02
40730;BME280;26418;50.070;8.436;2023-04-26T12:01:00;100117.41;;;17.60;29.33
40730;BME280;26418;50.070;8.436;2023-04-26T12:03:33;100116.03;;;17.17;33.54
40730;BME280;26418;50.070;8.436;2023-04-26T12:06:04;100113.13;;;16.88;31.85
40730;BME280;26418;50.070;8.436;2023-04-26T12:08:32;100108.72;;;16.62;31.02
40730;BME280;26418;50.070;8.436;2023-04-26T12:10:58;100107.66;;;16.21;30.73
40730;BME280;26418;50.070;8.436;2023-04-26T12:13:25;100113.50;;;16.11;31.77
40730;BME280;26418;50.070;8.436;2023-04-26T12:15:50;100116.59;;;16.43;32.20
40730;BME280;26418;50.070;8.436;2023-04-26T12:18:16;100104.72;;;16.93;32.07
40730;BME280;26418;50.070;8.436;2023-04-26T12:20:42;100099.66;;;17.54;30.75
40730;BME280;26418;50.070;8.436;2023-04-26T12:23:11;100088.88;;;18.27;30.21
40730;BME280;26418;50.070;8.436;2023-04-26T12:25:38;100091.50;;;18.51;28.52
40730;BME280;26418;50.070;8.436;2023-04-26T12:28:11;100094.38;;;18.55;29.15
40730;BME280;26418;50.070;8.436;2023-04-26T12:30:38;100093.88;;;18.09;28.00
40730;BME280;26418;50.070;8.436;2023-04-26T12:33:04;100096.78;;;17.13;29.37
40730;BME280;26418;50.070;8.436;2023-04-26T12:35:30;100101.84;;;16.44;30.17
40730;BME280;26418;50.070;8.436;2023-04-26T12:37:56;100096.22;;;16.07;31.56
40730;BME280;26418;50.070;8.436;2023-04-26T12:40:25;100097.00;;;16.07;32.00
40730;BME280;26418;50.070;8.436;2023-04-26T12:42:51;100104.28;;;16.24;32.10
40730;BME280;26418;50.070;8.436;2023-04-26T12:45:18;100103.25;;;16.62;32.76
40730;BME280;26418;50.070;8.436;2023-04-26T12:47:44;100095.88;;;17.09;37.34
40730;BME280;26418;50.070;8.436;2023-04-26T12:50:10;100088.94;;;17.24;30.74
40730;BME280;26418;50.070;8.436;2023-04-26T12:52:40;100097.56;;;17.01;31.55
40730;BME280;26418;50.070;8.436;2023-04-26T12:55:07;100079.63;;;16.79;31.32
40730;BME280;26418;50.070;8.436;2023-04-26T12:57:33;100093.59;;;16.99;33.22
40730;BME280;26418;50.070;8.436;2023-04-26T12:59:59;100084.81;;;16.93;32.38
40730;BME280;26418;50.070;8.436;2023-04-26T13:02:25;100094.38;;;16.99;32.05
40730;BME280;26418;50.070;8.436;2023-04-26T13:04:51;100100.31;;;17.01;31.31
40730;BME280;26418;50.070;8.436;2023-04-26T13:07:16;100095.88;;;17.09;32.04
40730;BME280;26418;50.070;8.436;2023-04-26T13:09:42;100098.06;;;17.28;31.25
40730;BME280;26418;50.070;8.436;2023-04-26T13:12:07;100092.38;;;17.21;33.25
40730;BME280;26418;50.070;8.436;2023-04-26T13:14:32;100103.97;;;17.42;32.10